Time;durP1;ratioP1;P1;durP2;ratioP2;P2;SDS_P1;SDS_P2;PMS_P1;PMS_P2;Temp;Humidity;BMP_temperature;BMP_pressure;BME280_temperature;BME280_humidity;BME280_pressure;Samples;Min_cycle;Max_cycle;Signal;HPM_P1;HPM_P2
2023/08/26 00:04:04;;;;;;;;;;;23.50;67.00;;;;;;10150263;28;94600;-47
2023/08/26 00:09:06;;;;;;;;;;;23.50;67.00;;;;;;10157568;28;94615;-47
2023/08/26 00:14:11;;;;;;;;;;;23.50;66.90;;;;;;10150507;28;113261;-48
2023/08/26 00:19:16;;;;;;;;;;;23.50;66.90;;;;;;10139240;28;93460;-49
2023/08/26 00:24:19;;;;;;;;;;;23.50;66.70;;;;;;10151452;28;94477;-46
2023/08/26 00:29:20;;;;;;;;;;;23.50;66.80;;;;;;10155122;28;96130;-45
2023/08/26 00:34:22;;;;;;;;;;;23.50;66.60;;;;;;10157039;28;94199;-46
2023/08/26 00:39:24;;;;;;;;;;;23.50;66.50;;;;;;10155218;28;94292;-46
2023/08/26 00:44:26;;;;;;;;;;;23.50;66.60;;;;;;10151904;28;93468;-46
2023/08/26 00:49:27;;;;;;;;;;;23.40;66.50;;;;;;10152505;28;94355;-48
2023/08/26 00:54:32;;;;;;;;;;;23.40;66.40;;;;;;10157134;28;94815;-46
2023/08/26 00:59:35;;;;;;;;;;;23.40;66.40;;;;;;10151389;28;92673;-53
2023/08/26 01:04:37;;;;;;;;;;;23.40;66.20;;;;;;10138502;28;93968;-46
2023/08/26 01:09:38;;;;;;;;;;;23.40;66.20;;;;;;10155201;28;93442;-48
2023/08/26 01:14:42;;;;;;;;;;;23.40;66.20;;;;;;10155357;28;93847;-51
2023/08/26 01:19:44;;;;;;;;;;;23.40;66.10;;;;;;10153872;28;96933;-46
2023/08/26 01:24:46;;;;;;;;;;;23.40;66.00;;;;;;10152194;28;93864;-46
2023/08/26 01:29:48;;;;;;;;;;;23.40;66.00;;;;;;10154868;28;94468;-46
2023/08/26 01:34:52;;;;;;;;;;;23.40;66.00;;;;;;10154976;28;94679;-45
2023/08/26 01:39:55;;;;;;;;;;;23.40;66.10;;;;;;10155011;28;94262;-47
2023/08/26 01:44:57;;;;;;;;;;;23.40;65.90;;;;;;10122305;28;93469;-45
2023/08/26 01:49:59;;;;;;;;;;;23.40;65.80;;;;;;10137853;28;94458;-46
2023/08/26 01:55:01;;;;;;;;;;;23.40;65.80;;;;;;10138292;28;93918;-48
2023/08/26 02:00:05;;;;;;;;;;;23.30;65.70;;;;;;10154329;28;93476;-46
2023/08/26 02:05:07;;;;;;;;;;;23.40;65.80;;;;;;10153696;28;94613;-46
2023/08/26 02:10:08;;;;;;;;;;;23.40;65.80;;;;;;10153054;28;96813;-46
2023/08/26 02:15:11;;;;;;;;;;;23.40;65.70;;;;;;10160769;28;94176;-47
2023/08/26 02:20:12;;;;;;;;;;;23.40;65.60;;;;;;10160562;28;94556;-50
2023/08/26 02:25:14;;;;;;;;;;;23.40;65.60;;;;;;10160913;28;94423;-49
2023/08/26 02:30:16;;;;;;;;;;;23.40;65.60;;;;;;10159110;28;95601;-48
2023/08/26 02:35:17;;;;;;;;;;;23.30;65.50;;;;;;10159497;28;94578;-48
2023/08/26 02:40:19;;;;;;;;;;;23.30;65.60;;;;;;10159662;28;93788;-50
2023/08/26 02:45:21;;;;;;;;;;;23.30;65.50;;;;;;10142201;28;93221;-47
2023/08/26 02:50:24;;;;;;;;;;;23.40;65.50;;;;;;10157420;28;97512;-45
2023/08/26 02:55:25;;;;;;;;;;;23.30;65.40;;;;;;10160162;28;94434;-47
2023/08/26 03:00:27;;;;;;;;;;;23.30;65.40;;;;;;10148589;28;96855;-47
2023/08/26 03:05:29;;;;;;;;;;;23.30;65.40;;;;;;10132425;28;93453;-45
2023/08/26 03:10:31;;;;;;;;;;;23.30;65.40;;;;;;10153055;28;94750;-51
2023/08/26 03:15:32;;;;;;;;;;;23.30;65.40;;;;;;10147318;28;94098;-49
2023/08/26 03:20:34;;;;;;;;;;;23.30;65.40;;;;;;10153475;28;93958;-50
2023/08/26 03:25:37;;;;;;;;;;;23.30;65.40;;;;;;10158708;28;94754;-46
2023/08/26 03:30:38;;;;;;;;;;;23.30;65.40;;;;;;10156521;28;94424;-52
2023/08/26 03:35:40;;;;;;;;;;;23.30;65.40;;;;;;10141767;28;93332;-49
2023/08/26 03:40:43;;;;;;;;;;;23.30;65.40;;;;;;10140403;28;94255;-48
2023/08/26 03:45:44;;;;;;;;;;;23.30;65.40;;;;;;10157770;28;93967;-47
2023/08/26 03:50:50;;;;;;;;;;;23.30;65.20;;;;;;10132648;28;96859;-46
2023/08/26 03:55:52;;;;;;;;;;;23.30;65.30;;;;;;10155944;28;94903;-46
2023/08/26 04:01:01;;;;;;;;;;;23.30;65.30;;;;;;10156389;28;94806;-46
2023/08/26 04:06:05;;;;;;;;;;;23.30;65.20;;;;;;10156146;28;94590;-47
2023/08/26 04:11:07;;;;;;;;;;;23.20;65.10;;;;;;10147697;28;94117;-49
2023/08/26 04:16:09;;;;;;;;;;;23.20;65.10;;;;;;10155925;28;93478;-45
2023/08/26 04:21:13;;;;;;;;;;;23.20;65.20;;;;;;10139955;28;93417;-55
2023/08/26 04:26:15;;;;;;;;;;;23.20;65.10;;;;;;10156393;28;92313;-47
2023/08/26 04:31:17;;;;;;;;;;;23.20;65.00;;;;;;10155928;28;93454;-48
2023/08/26 04:36:18;;;;;;;;;;;23.20;65.10;;;;;;10126590;28;94714;-45
2023/08/26 04:41:20;;;;;;;;;;;23.20;65.10;;;;;;10140398;28;95836;-48
2023/08/26 04:51:49;;;;;;;;;;;23.20;65.10;;;;;;9495420;23;93573;-62
2023/08/26 04:56:50;;;;;;;;;;;23.10;64.90;;;;;;10214953;28;94927;-62
2023/08/26 05:01:53;;;;;;;;;;;23.10;65.00;;;;;;10233727;28;94707;-62
2023/08/26 05:06:54;;;;;;;;;;;23.10;64.90;;;;;;10228717;28;93507;-62
2023/08/26 05:11:58;;;;;;;;;;;23.10;64.90;;;;;;10229322;28;93704;-61
2023/08/26 05:16:59;;;;;;;;;;;23.10;64.80;;;;;;10221746;28;92685;-62
2023/08/26 05:22:02;;;;;;;;;;;23.10;64.90;;;;;;10226052;28;95301;-62
2023/08/26 05:27:05;;;;;;;;;;;23.10;64.90;;;;;;10221762;28;94463;-62
2023/08/26 05:32:07;;;;;;;;;;;23.10;64.90;;;;;;10212051;28;96604;-62
2023/08/26 05:37:09;;;;;;;;;;;23.10;64.90;;;;;;10208103;28;94428;-62
2023/08/26 05:42:10;;;;;;;;;;;23.00;64.80;;;;;;10203638;28;93496;-62
2023/08/26 05:47:13;;;;;;;;;;;23.00;64.80;;;;;;10210455;28;94301;-61
2023/08/26 05:52:15;;;;;;;;;;;23.00;64.60;;;;;;10193952;28;94478;-62
2023/08/26 05:57:17;;;;;;;;;;;23.00;64.70;;;;;;10229431;28;94439;-62
2023/08/26 06:02:19;;;;;;;;;;;23.00;64.60;;;;;;10205103;28;93490;-62
2023/08/26 06:07:20;;;;;;;;;;;23.00;64.60;;;;;;10190426;28;92730;-62
2023/08/26 06:12:23;;;;;;;;;;;23.00;64.60;;;;;;10207289;28;94039;-62
2023/08/26 06:17:24;;;;;;;;;;;22.90;64.40;;;;;;10214858;28;94909;-62
2023/08/26 06:22:26;;;;;;;;;;;22.90;64.40;;;;;;10208209;28;95929;-62
2023/08/26 06:27:28;;;;;;;;;;;22.90;64.60;;;;;;10204909;28;94768;-63
2023/08/26 06:32:30;;;;;;;;;;;22.90;64.40;;;;;;10193449;28;94464;-62
2023/08/26 06:37:32;;;;;;;;;;;22.90;64.40;;;;;;10192418;28;94212;-62
2023/08/26 06:42:34;;;;;;;;;;;22.90;64.50;;;;;;10194252;28;93439;-63
2023/08/26 06:47:36;;;;;;;;;;;22.90;64.50;;;;;;10205758;28;94337;-63
2023/08/26 06:52:38;;;;;;;;;;;22.90;64.40;;;;;;10218565;28;93644;-62
2023/08/26 06:57:40;;;;;;;;;;;22.90;64.40;;;;;;10215149;28;92615;-63
2023/08/26 07:02:42;;;;;;;;;;;22.90;64.40;;;;;;10225264;28;93425;-63
2023/08/26 07:07:44;;;;;;;;;;;22.90;64.40;;;;;;10184268;28;93827;-63
2023/08/26 07:12:46;;;;;;;;;;;22.90;64.50;;;;;;10225396;28;96936;-62
2023/08/26 07:17:48;;;;;;;;;;;22.90;64.40;;;;;;10217166;28;93785;-62
2023/08/26 07:22:50;;;;;;;;;;;22.90;64.50;;;;;;10205857;28;94556;-60
2023/08/26 07:27:52;;;;;;;;;;;22.90;64.50;;;;;;10221682;28;94003;-62
2023/08/26 07:32:54;;;;;;;;;;;22.90;64.50;;;;;;10223464;28;94560;-62
2023/08/26 07:37:56;;;;;;;;;;;22.80;64.40;;;;;;10198525;28;93495;-62
2023/08/26 07:42:58;;;;;;;;;;;22.90;65.50;;;;;;10222589;28;94523;-62
2023/08/26 07:48:00;;;;;;;;;;;22.90;64.40;;;;;;10197843;28;92812;-62
2023/08/26 07:53:05;;;;;;;;;;;22.90;64.60;;;;;;10214751;28;94263;-62
2023/08/26 07:58:07;;;;;;;;;;;22.80;64.50;;;;;;10217140;28;93564;-62
2023/08/26 08:03:09;;;;;;;;;;;22.90;64.50;;;;;;10201911;28;96793;-63
2023/08/26 08:08:10;;;;;;;;;;;22.80;64.50;;;;;;10188673;28;94855;-62
2023/08/26 08:13:12;;;;;;;;;;;22.80;64.40;;;;;;10211355;28;93199;-63
2023/08/26 08:18:14;;;;;;;;;;;22.80;64.40;;;;;;10199443;28;93504;-62
2023/08/26 08:23:18;;;;;;;;;;;22.80;64.50;;;;;;10213469;28;93368;-62
2023/08/26 08:28:19;;;;;;;;;;;22.80;64.40;;;;;;10213166;28;93860;-62
2023/08/26 08:33:22;;;;;;;;;;;22.80;64.50;;;;;;10218588;28;93455;-62
2023/08/26 08:38:24;;;;;;;;;;;22.90;64.50;;;;;;10212445;28;92889;-63
2023/08/26 08:43:27;;;;;;;;;;;22.80;64.50;;;;;;10206875;28;93559;-62
2023/08/26 08:48:32;;;;;;;;;;;22.90;64.40;;;;;;10216496;28;93781;-61
2023/08/26 08:53:37;;;;;;;;;;;22.90;64.40;;;;;;10215483;28;97727;-62
2023/08/26 08:58:40;;;;;;;;;;;22.90;64.20;;;;;;10220189;28;93477;-61
2023/08/26 09:03:41;;;;;;;;;;;22.90;64.20;;;;;;10210101;28;94724;-62
2023/08/26 09:08:44;;;;;;;;;;;22.90;64.20;;;;;;10215648;28;93921;-63
2023/08/26 09:13:47;;;;;;;;;;;22.90;64.20;;;;;;10224369;28;94514;-62
2023/08/26 09:18:49;;;;;;;;;;;23.00;64.20;;;;;;10211453;28;94510;-63
2023/08/26 09:23:52;;;;;;;;;;;23.00;64.00;;;;;;10222459;28;94535;-63
2023/08/26 09:28:54;;;;;;;;;;;23.00;63.90;;;;;;10200242;28;94056;-63
2023/08/26 09:34:01;;;;;;;;;;;23.10;64.00;;;;;;10223115;28;94553;-62
2023/08/26 09:39:11;;;;;;;;;;;23.10;63.90;;;;;;10189041;28;93495;-63
2023/08/26 09:44:14;;;;;;;;;;;23.10;63.70;;;;;;10213345;28;96621;-62
2023/08/26 09:49:20;;;;;;;;;;;23.20;63.70;;;;;;10215474;28;94084;-62
2023/08/26 09:54:22;;;;;;;;;;;23.30;63.50;;;;;;10203106;28;94583;-62
2023/08/26 09:59:24;;;;;;;;;;;23.40;63.40;;;;;;10232053;28;93488;-62
2023/08/26 10:04:27;;;;;;;;;;;23.40;63.30;;;;;;10224810;28;93424;-62
2023/08/26 10:09:58;;;;;;;;;;;23.50;63.20;;;;;;10203522;28;93458;-62
2023/08/26 10:15:01;;;;;;;;;;;23.50;63.00;;;;;;10206132;28;94451;-62
2023/08/26 10:20:03;;;;;;;;;;;23.60;62.90;;;;;;10203189;28;93819;-62
2023/08/26 10:25:07;;;;;;;;;;;23.70;62.80;;;;;;10206400;28;93689;-62
2023/08/26 10:30:09;;;;;;;;;;;23.60;62.60;;;;;;10203684;28;93432;-60
2023/08/26 10:35:12;;;;;;;;;;;23.70;62.60;;;;;;10202186;28;97110;-62
2023/08/26 10:40:14;;;;;;;;;;;23.60;62.70;;;;;;10215319;28;93572;-63
2023/08/26 10:45:17;;;;;;;;;;;23.70;62.70;;;;;;10207042;28;93574;-62
2023/08/26 10:50:28;;;;;;;;;;;23.60;62.70;;;;;;10211533;28;94771;-62
2023/08/26 10:55:32;;;;;;;;;;;23.60;62.70;;;;;;10202913;28;94926;-63
2023/08/26 11:00:34;;;;;;;;;;;23.60;62.70;;;;;;10217187;28;93812;-62
2023/08/26 11:05:37;;;;;;;;;;;23.60;62.90;;;;;;10217329;28;93833;-62
2023/08/26 11:10:39;;;;;;;;;;;23.60;62.90;;;;;;10204083;28;93072;-61
2023/08/26 11:15:42;;;;;;;;;;;23.60;62.70;;;;;;10205018;28;93495;-62
2023/08/26 11:20:44;;;;;;;;;;;23.60;62.90;;;;;;10216053;28;93208;-63
2023/08/26 11:25:47;;;;;;;;;;;23.60;62.70;;;;;;10207494;28;96155;-62
2023/08/26 11:30:49;;;;;;;;;;;23.60;62.60;;;;;;10210887;28;92904;-62
2023/08/26 11:35:54;;;;;;;;;;;23.60;62.70;;;;;;10218413;28;93561;-62
2023/08/26 11:41:10;;;;;;;;;;;23.60;62.90;;;;;;10204913;28;93651;-62
2023/08/26 11:46:12;;;;;;;;;;;23.60;62.50;;;;;;10210337;28;93719;-63
2023/08/26 11:51:13;;;;;;;;;;;23.60;62.70;;;;;;10211815;28;93538;-62
2023/08/26 11:56:15;;;;;;;;;;;23.60;62.70;;;;;;10224788;28;93490;-62
2023/08/26 12:01:18;;;;;;;;;;;23.50;62.60;;;;;;10222542;28;93265;-62
2023/08/26 12:06:20;;;;;;;;;;;23.50;62.90;;;;;;10203784;28;93625;-62
2023/08/26 12:11:24;;;;;;;;;;;23.50;62.80;;;;;;10205578;28;94137;-63
2023/08/26 12:16:26;;;;;;;;;;;23.50;62.80;;;;;;10200914;28;97383;-62
2023/08/26 12:21:31;;;;;;;;;;;23.50;62.70;;;;;;10205512;28;93373;-63
2023/08/26 12:26:33;;;;;;;;;;;23.60;62.80;;;;;;10209198;28;92888;-61
2023/08/26 12:31:35;;;;;;;;;;;23.60;62.90;;;;;;10214849;28;93838;-62
2023/08/26 12:36:37;;;;;;;;;;;23.60;62.80;;;;;;10202520;28;94770;-62
2023/08/26 12:41:39;;;;;;;;;;;23.70;62.60;;;;;;10196941;28;94913;-62
2023/08/26 12:46:41;;;;;;;;;;;23.70;62.70;;;;;;10208136;28;93810;-62
2023/08/26 12:51:43;;;;;;;;;;;23.70;62.80;;;;;;10227942;28;93730;-62
2023/08/26 12:56:44;;;;;;;;;;;23.70;62.80;;;;;;10186676;28;93462;-62
2023/08/26 13:01:48;;;;;;;;;;;23.70;63.00;;;;;;10206682;28;93034;-63
2023/08/26 13:06:50;;;;;;;;;;;23.70;62.90;;;;;;10218282;28;95958;-63
2023/08/26 13:11:52;;;;;;;;;;;23.70;62.80;;;;;;10206552;28;93723;-63
2023/08/26 13:16:54;;;;;;;;;;;23.70;63.00;;;;;;10199792;28;94753;-63
2023/08/26 13:21:56;;;;;;;;;;;23.60;62.70;;;;;;10199696;28;93511;-63
2023/08/26 13:26:58;;;;;;;;;;;23.60;62.70;;;;;;10212293;28;94944;-63
2023/08/26 13:32:00;;;;;;;;;;;23.60;63.10;;;;;;10221232;28;93358;-62
2023/08/26 13:37:02;;;;;;;;;;;23.50;63.20;;;;;;10203989;28;94522;-62
2023/08/26 13:42:07;;;;;;;;;;;23.50;63.30;;;;;;10209723;28;94010;-62
2023/08/26 13:47:09;;;;;;;;;;;23.50;63.40;;;;;;10218329;28;93630;-62
2023/08/26 13:52:12;;;;;;;;;;;23.50;63.50;;;;;;10234141;28;93835;-62
2023/08/26 13:57:16;;;;;;;;;;;23.50;63.70;;;;;;10220087;28;96477;-62
2023/08/26 14:02:20;;;;;;;;;;;23.50;63.70;;;;;;10190912;28;93722;-63
2023/08/26 14:07:22;;;;;;;;;;;23.50;63.80;;;;;;10208681;28;93829;-62
2023/08/26 14:12:24;;;;;;;;;;;23.50;63.80;;;;;;10228793;28;94465;-62
2023/08/26 14:17:26;;;;;;;;;;;23.50;63.90;;;;;;10224838;28;93516;-61
2023/08/26 14:22:28;;;;;;;;;;;23.50;64.00;;;;;;10221900;28;94753;-62
2023/08/26 14:27:29;;;;;;;;;;;23.50;64.00;;;;;;10230337;28;93431;-62
2023/08/26 14:32:31;;;;;;;;;;;23.50;64.00;;;;;;10203957;28;92689;-62
2023/08/26 14:37:36;;;;;;;;;;;23.50;64.00;;;;;;10193513;28;93954;-62
2023/08/26 14:42:38;;;;;;;;;;;23.50;64.10;;;;;;10229892;28;93627;-62
2023/08/26 14:47:43;;;;;;;;;;;23.50;64.10;;;;;;10207594;28;96492;-62
2023/08/26 14:52:44;;;;;;;;;;;23.50;64.10;;;;;;10213083;28;94185;-62
2023/08/26 14:57:47;;;;;;;;;;;23.40;64.10;;;;;;10218370;28;94422;-62
2023/08/26 15:02:50;;;;;;;;;;;23.50;64.10;;;;;;10219234;28;93339;-62
2023/08/26 15:07:52;;;;;;;;;;;23.40;64.10;;;;;;10215185;28;94034;-62
2023/08/26 15:12:54;;;;;;;;;;;23.30;64.10;;;;;;10212106;28;94496;-62
2023/08/26 15:17:56;;;;;;;;;;;23.40;64.20;;;;;;10211254;28;94736;-63
2023/08/26 15:22:58;;;;;;;;;;;23.40;64.30;;;;;;10212357;28;96066;-63
2023/08/26 15:28:00;;;;;;;;;;;23.40;64.30;;;;;;10223979;28;93405;-63
2023/08/26 15:33:02;;;;;;;;;;;23.40;64.30;;;;;;10209566;28;94633;-62
2023/08/26 15:38:04;;;;;;;;;;;23.30;64.30;;;;;;10218672;28;95953;-63
2023/08/26 15:43:08;;;;;;;;;;;23.30;64.30;;;;;;10185732;28;94793;-62
2023/08/26 15:48:09;;;;;;;;;;;23.30;64.30;;;;;;10188530;28;93483;-62
2023/08/26 15:53:12;;;;;;;;;;;23.30;64.30;;;;;;10189756;28;94407;-63
2023/08/26 15:58:14;;;;;;;;;;;23.30;64.30;;;;;;10238341;28;93439;-63
2023/08/26 16:03:17;;;;;;;;;;;23.30;64.30;;;;;;10237130;28;93608;-62
2023/08/26 16:08:19;;;;;;;;;;;23.30;64.30;;;;;;10201383;28;93385;-63
2023/08/26 16:13:22;;;;;;;;;;;23.30;64.30;;;;;;10221769;28;93255;-63
2023/08/26 16:18:24;;;;;;;;;;;23.30;64.40;;;;;;10205978;28;94670;-62
2023/08/26 16:23:26;;;;;;;;;;;23.30;64.30;;;;;;10201794;28;94039;-62
2023/08/26 16:28:28;;;;;;;;;;;23.20;64.30;;;;;;10232508;28;95848;-61
2023/08/26 16:33:31;;;;;;;;;;;23.30;64.50;;;;;;10213077;28;93668;-62
2023/08/26 16:38:33;;;;;;;;;;;23.30;64.50;;;;;;10229300;28;94256;-63
2023/08/26 16:43:35;;;;;;;;;;;23.20;64.40;;;;;;10218839;28;94508;-61
2023/08/26 16:48:37;;;;;;;;;;;23.20;64.40;;;;;;10218918;28;93494;-61
2023/08/26 16:53:39;;;;;;;;;;;23.20;64.30;;;;;;10220225;28;93771;-62
2023/08/26 16:58:40;;;;;;;;;;;23.20;64.30;;;;;;10209183;28;94536;-61
2023/08/26 17:03:42;;;;;;;;;;;23.20;64.30;;;;;;10200991;28;92709;-62
2023/08/26 17:08:44;;;;;;;;;;;23.20;64.40;;;;;;10212024;28;94473;-62
2023/08/26 17:13:46;;;;;;;;;;;23.20;64.40;;;;;;10223468;28;93500;-62
2023/08/26 17:18:48;;;;;;;;;;;23.30;64.40;;;;;;10213108;28;95951;-62
2023/08/26 17:23:51;;;;;;;;;;;23.20;64.30;;;;;;10201444;28;93216;-63
2023/08/26 17:28:53;;;;;;;;;;;23.20;64.30;;;;;;10210953;28;93284;-62
2023/08/26 17:33:55;;;;;;;;;;;23.20;64.30;;;;;;10214650;28;93390;-62
2023/08/26 17:38:57;;;;;;;;;;;23.20;64.20;;;;;;10211683;28;93782;-62
2023/08/26 17:43:58;;;;;;;;;;;23.20;64.20;;;;;;10207696;28;93630;-62
2023/08/26 17:49:00;;;;;;;;;;;23.20;64.20;;;;;;10208271;28;92631;-61
2023/08/26 17:54:02;;;;;;;;;;;23.20;64.30;;;;;;10209562;28;93684;-63
2023/08/26 17:59:04;;;;;;;;;;;23.20;64.20;;;;;;10219603;28;93410;-62
2023/08/26 18:04:05;;;;;;;;;;;23.20;64.20;;;;;;10203519;28;94743;-63
2023/08/26 18:09:07;;;;;;;;;;;23.20;64.20;;;;;;10219572;28;96198;-62
2023/08/26 18:14:09;;;;;;;;;;;23.20;64.20;;;;;;10221289;28;94417;-62
2023/08/26 18:19:11;;;;;;;;;;;23.20;64.20;;;;;;10208735;28;93464;-63
2023/08/26 18:24:13;;;;;;;;;;;23.20;64.30;;;;;;10209691;28;94162;-62
2023/08/26 18:29:14;;;;;;;;;;;23.20;64.20;;;;;;10220640;28;93811;-63
2023/08/26 18:34:18;;;;;;;;;;;23.20;64.20;;;;;;10232615;28;93518;-62
2023/08/26 18:39:21;;;;;;;;;;;23.20;64.20;;;;;;10213392;28;94518;-62
2023/08/26 18:44:23;;;;;;;;;;;23.10;64.10;;;;;;10230564;28;93776;-62
2023/08/26 18:49:25;;;;;;;;;;;23.10;64.10;;;;;;10230299;28;94576;-62
2023/08/26 18:54:27;;;;;;;;;;;23.10;64.10;;;;;;10200006;28;93618;-62
2023/08/26 18:59:28;;;;;;;;;;;23.10;64.10;;;;;;10225748;28;95008;-62
2023/08/26 19:04:30;;;;;;;;;;;23.10;64.10;;;;;;10239590;28;93928;-62
2023/08/26 19:09:32;;;;;;;;;;;23.10;64.10;;;;;;10204197;28;93064;-61
2023/08/26 19:14:34;;;;;;;;;;;23.10;64.10;;;;;;10213819;28;93444;-62
2023/08/26 19:19:36;;;;;;;;;;;23.10;64.10;;;;;;10237524;28;93325;-62
2023/08/26 19:24:39;;;;;;;;;;;23.10;64.10;;;;;;10206542;28;94366;-62
2023/08/26 19:29:41;;;;;;;;;;;23.00;64.10;;;;;;10200664;28;94439;-63
2023/08/26 19:34:44;;;;;;;;;;;23.00;64.20;;;;;;10203145;28;93759;-62
2023/08/26 19:39:48;;;;;;;;;;;23.00;64.10;;;;;;10221119;28;94007;-62
2023/08/26 19:44:49;;;;;;;;;;;23.00;64.10;;;;;;10210521;28;93475;-62
2023/08/26 19:49:52;;;;;;;;;;;23.00;64.10;;;;;;10217930;28;96807;-62
2023/08/26 19:54:54;;;;;;;;;;;23.00;64.00;;;;;;10199962;28;93575;-62
2023/08/26 19:59:55;;;;;;;;;;;23.00;64.00;;;;;;10227149;28;93520;-62
2023/08/26 20:04:57;;;;;;;;;;;23.00;64.00;;;;;;10217756;28;93493;-62
2023/08/26 20:09:59;;;;;;;;;;;22.90;63.90;;;;;;10222642;28;93914;-62
2023/08/26 20:15:04;;;;;;;;;;;22.90;63.80;;;;;;10210797;28;93446;-62
2023/08/26 20:20:06;;;;;;;;;;;22.90;64.00;;;;;;10200428;28;94523;-62
2023/08/26 20:25:08;;;;;;;;;;;22.90;63.80;;;;;;10226389;28;93670;-62
2023/08/26 20:30:09;;;;;;;;;;;22.90;63.80;;;;;;10210510;28;94025;-62
2023/08/26 20:35:11;;;;;;;;;;;22.90;63.80;;;;;;10200562;28;94768;-62
2023/08/26 20:40:13;;;;;;;;;;;22.90;63.80;;;;;;10187794;28;95930;-62
2023/08/26 20:45:15;;;;;;;;;;;22.90;63.70;;;;;;10213289;28;93514;-62
2023/08/26 20:50:18;;;;;;;;;;;22.80;63.70;;;;;;10222690;28;93539;-63
2023/08/26 20:55:20;;;;;;;;;;;22.80;63.60;;;;;;10193053;28;95022;-62
2023/08/26 21:00:23;;;;;;;;;;;22.80;63.60;;;;;;10204222;28;94619;-63
2023/08/26 21:05:25;;;;;;;;;;;22.80;63.60;;;;;;10202660;28;94109;-62
2023/08/26 21:10:27;;;;;;;;;;;22.80;63.70;;;;;;10209262;28;94426;-62
2023/08/26 21:15:28;;;;;;;;;;;22.80;63.60;;;;;;10194056;28;93736;-62
2023/08/26 21:20:30;;;;;;;;;;;22.80;63.50;;;;;;10231996;28;93815;-63
2023/08/26 21:25:32;;;;;;;;;;;22.80;63.50;;;;;;10220876;28;93359;-62
2023/08/26 21:30:34;;;;;;;;;;;22.80;63.60;;;;;;10205880;28;96819;-62
2023/08/26 21:35:36;;;;;;;;;;;22.80;63.50;;;;;;10211181;28;94427;-63
2023/08/26 21:40:38;;;;;;;;;;;22.70;63.40;;;;;;10210075;28;94403;-62
2023/08/26 21:45:39;;;;;;;;;;;22.70;63.50;;;;;;10200160;28;94607;-62
2023/08/26 21:50:43;;;;;;;;;;;22.70;63.40;;;;;;10227451;28;94521;-62
2023/08/26 21:55:49;;;;;;;;;;;22.70;63.40;;;;;;10214156;28;94338;-62
2023/08/26 22:00:52;;;;;;;;;;;22.70;63.40;;;;;;10211890;28;94611;-62
2023/08/26 22:05:54;;;;;;;;;;;22.60;63.40;;;;;;10213336;28;93082;-62
2023/08/26 22:10:56;;;;;;;;;;;22.60;63.40;;;;;;10218502;28;93398;-61
2023/08/26 22:15:58;;;;;;;;;;;22.70;63.40;;;;;;10201073;28;93615;-62
2023/08/26 22:20:59;;;;;;;;;;;22.70;63.30;;;;;;10220456;28;95843;-63
2023/08/26 22:26:01;;;;;;;;;;;22.60;63.30;;;;;;10212786;28;94631;-63
2023/08/26 22:31:03;;;;;;;;;;;22.60;63.30;;;;;;10200398;28;93649;-62
2023/08/26 22:36:05;;;;;;;;;;;22.60;63.30;;;;;;10222694;28;94583;-62
2023/08/26 22:41:07;;;;;;;;;;;22.60;63.30;;;;;;10211568;28;94409;-62
2023/08/26 22:46:09;;;;;;;;;;;22.60;63.30;;;;;;10227923;28;94405;-61
2023/08/26 22:51:11;;;;;;;;;;;22.60;63.30;;;;;;10211364;28;94631;-61
2023/08/26 22:56:13;;;;;;;;;;;22.60;63.30;;;;;;10219749;28;92713;-62
2023/08/26 23:01:15;;;;;;;;;;;22.60;63.30;;;;;;10215415;28;94393;-63
2023/08/26 23:06:17;;;;;;;;;;;22.60;63.30;;;;;;10213346;28;93965;-62
2023/08/26 23:11:19;;;;;;;;;;;22.60;63.30;;;;;;10199477;28;96813;-63
2023/08/26 23:16:22;;;;;;;;;;;22.60;63.20;;;;;;10206761;28;93623;-63
2023/08/26 23:21:24;;;;;;;;;;;22.50;63.30;;;;;;10207673;28;93343;-63
2023/08/26 23:26:26;;;;;;;;;;;22.60;63.20;;;;;;10212429;28;93503;-63
2023/08/26 23:31:28;;;;;;;;;;;22.60;63.20;;;;;;10203024;28;94443;-63
2023/08/26 23:36:29;;;;;;;;;;;22.50;63.10;;;;;;10213648;28;93535;-63
2023/08/26 23:41:31;;;;;;;;;;;22.60;63.10;;;;;;10205386;28;93458;-62
2023/08/26 23:46:36;;;;;;;;;;;22.60;63.10;;;;;;10206099;28;93075;-62
2023/08/26 23:51:37;;;;;;;;;;;22.60;63.00;;;;;;10218863;28;93970;-61
2023/08/26 23:56:39;;;;;;;;;;;22.50;62.90;;;;;;10224480;28;93495;-63
